Time;durP1;ratioP1;P1;durP2;ratioP2;P2;SDS_P1;SDS_P2;PMS_P1;PMS_P2;Temp;Humidity;BMP_temperature;BMP_pressure;BME280_temperature;BME280_humidity;BME280_pressure;Samples;Min_cycle;Max_cycle;Signal;HPM_P1;HPM_P2
2024/01/02 00:01:22;;;;;;;16.83;4.57;;;;;;;4.25;100.00;100157.19;4839257;29;20060;-81
2024/01/02 00:03:49;;;;;;;16.25;4.50;;;;;;;4.27;100.00;100150.28;4860215;29;20053;-81
2024/01/02 00:06:16;;;;;;;7.82;4.28;;;;;;;4.27;100.00;100145.97;4889854;29;20053;-81
2024/01/02 00:08:44;;;;;;;14.65;4.13;;;;;;;4.28;100.00;100141.59;4856178;29;20047;-81
2024/01/02 00:11:12;;;;;;;15.93;4.70;;;;;;;4.30;100.00;100122.50;4877942;29;20064;-81
2024/01/02 00:13:40;;;;;;;20.67;4.60;;;;;;;4.33;100.00;100123.41;4878160;29;20506;-82
2024/01/02 00:16:07;;;;;;;16.33;5.43;;;;;;;4.32;100.00;100119.06;4871216;29;20053;-82
2024/01/02 00:18:35;;;;;;;16.52;4.70;;;;;;;4.33;100.00;100113.88;4880095;29;20059;-80
2024/01/02 00:21:03;;;;;;;15.32;4.55;;;;;;;4.34;100.00;100109.53;4895422;29;20053;-80
2024/01/02 00:23:30;;;;;;;13.23;3.78;;;;;;;4.34;100.00;100115.63;4855491;29;20056;-80
2024/01/02 00:25:58;;;;;;;14.35;4.47;;;;;;;4.35;100.00;100106.97;4872762;29;20057;-80
2024/01/02 00:28:25;;;;;;;16.35;4.05;;;;;;;4.36;100.00;100097.41;4884084;29;20059;-80
2024/01/02 00:30:53;;;;;;;19.60;4.47;;;;;;;4.36;100.00;100095.66;4857047;29;20503;-80
2024/01/02 00:33:21;;;;;;;17.55;4.47;;;;;;;4.37;100.00;100078.28;4879030;29;20063;-82
2024/01/02 00:35:49;;;;;;;13.80;3.95;;;;;;;4.38;100.00;100085.25;4874163;29;20056;-81
2024/01/02 00:38:17;;;;;;;11.52;4.25;;;;;;;4.39;100.00;100081.81;4875995;29;20561;-81
2024/01/02 00:40:45;;;;;;;13.70;4.18;;;;;;;4.40;100.00;100062.66;4849116;29;20060;-81
2024/01/02 00:43:13;;;;;;;16.13;4.45;;;;;;;4.40;100.00;100057.44;4879863;29;20040;-81
2024/01/02 00:45:40;;;;;;;11.85;3.60;;;;;;;4.41;100.00;100054.00;4852883;29;20061;-82
2024/01/02 00:48:08;;;;;;;14.30;4.28;;;;;;;4.42;100.00;100045.31;4875140;29;20053;-81
2024/01/02 00:50:36;;;;;;;16.25;5.05;;;;;;;4.43;100.00;100040.13;4878843;29;20052;-81
2024/01/02 00:53:05;;;;;;;12.80;3.60;;;;;;;4.44;100.00;100033.16;4874453;29;20150;-81
2024/01/02 00:55:33;;;;;;;17.27;3.88;;;;;;;4.44;100.00;100020.13;4853594;29;20052;-81
2024/01/02 00:58:00;;;;;;;17.38;3.92;;;;;;;4.45;100.00;100027.09;4870438;29;20052;-81
2024/01/02 01:00:28;;;;;;;15.93;3.88;;;;;;;4.46;100.00;100015.81;4872233;29;20051;-81
2024/01/02 01:02:56;;;;;;;15.15;3.53;;;;;;;4.46;100.00;100011.47;4869920;29;20101;-81
2024/01/02 01:05:23;;;;;;;15.02;3.72;;;;;;;4.47;100.00;100005.38;4862366;29;20056;-81
2024/01/02 01:07:51;;;;;;;10.05;3.35;;;;;;;4.50;100.00;100012.41;4873516;29;20049;-81
2024/01/02 01:10:18;;;;;;;13.35;3.15;;;;;;;4.51;100.00;100001.09;4848728;29;20494;-81
2024/01/02 01:12:46;;;;;;;11.80;3.80;;;;;;;4.52;100.00;99987.22;4876333;29;20041;-82
2024/01/02 01:15:13;;;;;;;11.07;3.40;;;;;;;4.54;100.00;99984.59;4877319;29;20060;-81
2024/01/02 01:17:41;;;;;;;10.85;2.72;;;;;;;4.55;100.00;99979.41;4870402;29;20047;-81
2024/01/02 01:20:09;;;;;;;13.27;3.08;;;;;;;4.56;100.00;99969.88;4874633;29;20040;-81
2024/01/02 01:22:37;;;;;;;12.25;3.30;;;;;;;4.56;100.00;99967.25;4893009;29;20414;-82
2024/01/02 01:25:05;;;;;;;12.38;3.47;;;;;;;4.57;100.00;99956.81;4854715;29;20048;-82
2024/01/02 01:27:32;;;;;;;10.23;3.25;;;;;;;4.58;100.00;99955.97;4888032;29;20052;-81
2024/01/02 01:30:00;;;;;;;13.02;3.03;;;;;;;4.60;100.00;99948.19;4851490;29;20792;-80
2024/01/02 01:32:28;;;;;;;11.98;3.17;;;;;;;4.61;100.00;99932.53;4874284;29;20064;-80
2024/01/02 01:34:56;;;;;;;10.25;2.92;;;;;;;4.62;100.00;99936.88;4869618;29;20068;-80
2024/01/02 01:37:24;;;;;;;10.05;2.72;;;;;;;4.64;100.00;99931.69;4847508;29;20044;-81
2024/01/02 01:39:56;;;;;;;8.32;2.90;;;;;;;4.65;100.00;99934.31;4875601;29;20506;-82
2024/01/02 01:42:24;;;;;;;12.80;3.00;;;;;;;4.67;100.00;99922.16;4846192;29;20053;-80
2024/01/02 01:44:52;;;;;;;9.93;2.33;;;;;;;4.68;100.00;99917.81;4885452;29;20063;-81
2024/01/02 01:47:20;;;;;;;10.85;3.22;;;;;;;4.71;100.00;99914.34;4867968;29;20057;-81
2024/01/02 01:49:47;;;;;;;10.75;3.10;;;;;;;4.73;100.00;99910.94;4862686;29;20041;-81
2024/01/02 01:52:16;;;;;;;17.38;3.13;;;;;;;4.73;100.00;99899.63;4893094;29;20061;-82
2024/01/02 01:54:43;;;;;;;10.98;3.05;;;;;;;4.74;100.00;99897.00;4875863;29;20057;-81
2024/01/02 01:57:13;;;;;;;7.00;2.38;;;;;;;4.74;100.00;99880.47;4866311;29;20049;-81
2024/01/02 01:59:43;;;;;;;9.07;2.30;;;;;;;4.74;100.00;99865.69;4867562;29;20060;-81
2024/01/02 02:02:11;;;;;;;7.65;2.40;;;;;;;4.76;100.00;99865.72;4877289;29;20052;-81
2024/01/02 02:04:45;;;;;;;6.30;2.33;;;;;;;4.76;100.00;99852.66;4874964;29;20056;-81
2024/01/02 02:07:13;;;;;;;6.95;2.63;;;;;;;4.77;100.00;99849.19;4871586;29;20049;-81
2024/01/02 02:09:41;;;;;;;8.50;2.17;;;;;;;4.76;100.00;99837.88;4873149;29;20063;-82
2024/01/02 02:12:09;;;;;;;8.68;2.05;;;;;;;4.78;100.00;99835.28;4851772;29;20053;-81
2024/01/02 02:14:37;;;;;;;9.30;2.15;;;;;;;4.79;100.00;99827.47;4868430;29;20052;-82
2024/01/02 02:17:04;;;;;;;9.13;2.47;;;;;;;4.80;100.00;99823.13;4858528;29;20056;-80
2024/01/02 02:19:31;;;;;;;6.00;2.22;;;;;;;4.81;100.00;99810.09;4868123;29;20060;-80
2024/01/02 02:22:00;;;;;;;9.30;2.30;;;;;;;4.83;100.00;99807.50;4864536;29;20057;-80
2024/01/02 02:24:28;;;;;;;12.82;2.95;;;;;;;4.85;100.00;99795.31;4873869;29;20068;-80
2024/01/02 02:26:57;;;;;;;11.63;2.65;;;;;;;4.85;100.00;99790.09;4834162;29;20057;-81
2024/01/02 02:29:24;;;;;;;8.65;2.92;;;;;;;4.86;100.00;99777.06;4884649;29;20406;-80
2024/01/02 02:31:52;;;;;;;10.25;2.78;;;;;;;4.89;100.00;99778.81;4880753;29;20056;-81
2024/01/02 02:34:19;;;;;;;11.63;2.90;;;;;;;4.89;100.00;99760.56;4870114;29;20053;-80
2024/01/02 02:36:47;;;;;;;12.38;3.08;;;;;;;4.91;100.00;99756.22;4869222;29;20061;-81
2024/01/02 02:39:14;;;;;;;15.38;3.75;;;;;;;4.91;100.00;99751.00;4857828;29;20079;-80
2024/01/02 02:41:42;;;;;;;17.38;3.80;;;;;;;4.93;100.00;99731.00;4873093;29;20061;-80
2024/01/02 02:44:10;;;;;;;11.85;2.95;;;;;;;4.95;100.00;99729.28;4849086;29;20518;-82
2024/01/02 02:46:38;;;;;;;14.10;3.63;;;;;;;4.96;100.00;99725.81;4868446;29;20498;-81
2024/01/02 02:49:05;;;;;;;11.25;3.42;;;;;;;4.98;100.00;99712.78;4851966;29;20052;-81
2024/01/02 02:51:32;;;;;;;12.95;3.83;;;;;;;4.97;100.00;99706.69;4870336;29;20049;-81
2024/01/02 02:54:00;;;;;;;12.55;3.25;;;;;;;5.00;100.00;99695.38;4868006;29;20057;-80
2024/01/02 02:56:27;;;;;;;9.05;3.17;;;;;;;5.01;100.00;99684.06;4874001;29;20045;-81
2024/01/02 02:58:55;;;;;;;14.50;4.25;;;;;;;5.03;100.00;99678.00;4852781;29;20049;-81
2024/01/02 03:01:23;;;;;;;12.73;3.70;;;;;;;5.04;100.00;99674.50;4866759;29;20056;-81
2024/01/02 03:03:51;;;;;;;15.80;3.75;;;;;;;5.06;100.00;99674.53;4858261;29;20064;-81
2024/01/02 03:06:18;;;;;;;12.80;4.47;;;;;;;5.07;100.00;99665.84;4850452;29;20079;-80
2024/01/02 03:08:46;;;;;;;15.68;4.68;;;;;;;5.08;100.00;99652.81;4873012;29;20045;-81
2024/01/02 03:11:14;;;;;;;20.83;4.25;;;;;;;5.11;100.00;99648.47;4876224;29;20069;-81
2024/01/02 03:13:41;;;;;;;16.13;4.10;;;;;;;5.08;100.00;99626.69;4893450;29;20104;-82
2024/01/02 03:16:12;;;;;;;15.80;4.60;;;;;;;5.11;100.00;99635.41;4852113;29;20049;-82
2024/01/02 03:18:40;;;;;;;15.55;4.30;;;;;;;5.12;100.00;99624.09;4854317;29;20057;-82
2024/01/02 03:21:10;;;;;;;17.02;5.43;;;;;;;5.11;100.00;99620.59;4885230;29;20085;-80
2024/01/02 03:23:37;;;;;;;18.30;4.78;;;;;;;5.13;100.00;99607.56;4894822;29;20064;-81
2024/01/02 03:26:05;;;;;;;15.75;4.40;;;;;;;5.12;100.00;99606.66;4870894;29;20060;-81
2024/01/02 03:28:32;;;;;;;13.65;4.38;;;;;;;5.13;100.00;99590.16;4876662;29;20059;-81
2024/01/02 03:31:03;;;;;;;12.05;4.40;;;;;;;5.14;100.00;99594.53;4863852;29;20060;-82
2024/01/02 03:33:30;;;;;;;11.63;4.63;;;;;;;5.14;100.00;99583.19;4863898;29;20053;-83
2024/01/02 03:35:58;;;;;;;15.35;4.78;;;;;;;5.14;100.00;99581.47;4892482;29;20051;-81
2024/01/02 03:38:25;;;;;;;15.93;4.45;;;;;;;5.15;100.00;99567.53;4870364;29;20063;-82
2024/01/02 03:40:53;;;;;;;13.13;4.60;;;;;;;5.16;100.00;99563.16;4870695;29;20048;-81
2024/01/02 03:43:21;;;;;;;13.90;4.85;;;;;;;5.14;100.00;99550.13;4859245;29;20056;-81
2024/01/02 03:45:48;;;;;;;14.57;4.85;;;;;;;5.14;100.00;99544.91;4848994;29;20644;-81
2024/01/02 03:48:16;;;;;;;17.63;4.60;;;;;;;5.16;100.00;99537.94;4885907;29;20040;-81
2024/01/02 03:50:44;;;;;;;15.63;4.35;;;;;;;5.16;100.00;99514.44;4854056;29;20096;-82
2024/01/02 03:53:11;;;;;;;12.50;4.68;;;;;;;5.17;100.00;99510.09;4890425;29;20056;-82
2024/01/02 03:55:39;;;;;;;12.13;4.15;;;;;;;5.16;100.00;99509.22;4871089;29;20057;-82
2024/01/02 03:58:06;;;;;;;15.93;4.15;;;;;;;5.18;100.00;99498.75;4880216;29;20441;-82
2024/01/02 04:00:35;;;;;;;10.75;3.80;;;;;;;5.17;100.00;99486.56;4855000;29;20044;-81
2024/01/02 04:03:02;;;;;;;9.05;3.95;;;;;;;5.17;100.00;99479.59;4851176;29;20059;-82
2024/01/02 04:05:30;;;;;;;11.27;4.15;;;;;;;5.18;100.00;99463.09;4874246;29;20442;-82
2024/01/02 04:07:58;;;;;;;12.07;4.43;;;;;;;5.19;100.00;99456.97;4891582;29;20058;-81
2024/01/02 04:10:25;;;;;;;14.95;4.50;;;;;;;5.19;100.00;99449.13;4880062;29;20060;-82
2024/01/02 04:12:53;;;;;;;9.48;4.25;;;;;;;5.20;100.00;99439.59;4892916;29;20075;-81
2024/01/02 04:15:20;;;;;;;10.13;3.95;;;;;;;5.19;100.00;99423.03;4882782;29;20068;-82
2024/01/02 04:17:48;;;;;;;11.43;3.70;;;;;;;5.20;100.00;99418.69;4859600;29;20079;-81
2024/01/02 04:20:16;;;;;;;12.15;4.32;;;;;;;5.19;100.00;99409.97;4884633;29;20041;-81
2024/01/02 04:22:44;;;;;;;14.13;4.50;;;;;;;5.20;100.00;99395.19;4876549;29;20048;-81
2024/01/02 04:25:11;;;;;;;10.60;3.60;;;;;;;5.20;100.00;99387.34;4875397;29;20067;-81
2024/01/02 04:27:38;;;;;;;11.40;3.80;;;;;;;5.21;100.00;99376.03;4890540;29;20051;-81
2024/01/02 04:30:07;;;;;;;10.25;3.60;;;;;;;5.21;100.00;99365.59;4880592;29;20055;-81
2024/01/02 04:32:35;;;;;;;10.85;4.95;;;;;;;5.21;100.00;99366.44;4858180;29;20490;-81
2024/01/02 04:35:03;;;;;;;11.40;3.63;;;;;;;5.22;100.00;99357.75;4898054;29;20562;-82
2024/01/02 04:37:30;;;;;;;11.18;3.40;;;;;;;5.22;100.00;99352.53;4874735;29;20513;-82
2024/01/02 04:39:58;;;;;;;14.52;3.40;;;;;;;5.22;100.00;99355.13;4859829;29;20059;-81
2024/01/02 04:42:25;;;;;;;11.30;3.25;;;;;;;5.23;100.00;99341.19;4877481;29;20060;-82
2024/01/02 04:44:52;;;;;;;10.63;3.85;;;;;;;5.22;100.00;99336.00;4866957;29;20056;-81
2024/01/02 04:47:20;;;;;;;14.75;4.28;;;;;;;5.24;100.00;99331.66;4876518;29;20047;-82
2024/01/02 04:49:48;;;;;;;10.95;3.65;;;;;;;5.23;100.00;99322.91;4860204;29;20044;-82
2024/01/02 04:52:15;;;;;;;11.30;4.13;;;;;;;5.24;100.00;99316.84;4882324;29;20059;-81
2024/01/02 04:54:43;;;;;;;12.13;3.30;;;;;;;5.24;100.00;99303.78;4871202;29;20056;-81
2024/01/02 04:57:10;;;;;;;8.18;3.90;;;;;;;5.24;100.00;99303.78;4878673;29;20057;-81
2024/01/02 04:59:38;;;;;;;10.70;3.08;;;;;;;5.25;100.00;99302.03;4890428;29;20047;-81
2024/01/02 05:02:05;;;;;;;9.70;2.85;;;;;;;5.25;100.00;99286.34;4865333;29;20048;-81
2024/01/02 05:04:33;;;;;;;8.45;3.20;;;;;;;5.26;100.00;99301.16;4851208;29;20161;-81
2024/01/02 05:07:01;;;;;;;9.82;3.75;;;;;;;5.26;100.00;99301.16;4870635;29;20044;-82
2024/01/02 05:09:29;;;;;;;7.88;2.50;;;;;;;5.26;100.00;99291.59;4873975;29;20052;-81
2024/01/02 05:11:56;;;;;;;9.45;2.67;;;;;;;5.27;100.00;99284.59;4862557;29;20053;-82
2024/01/02 05:14:24;;;;;;;10.63;2.60;;;;;;;5.27;100.00;99271.56;4892335;29;20056;-81
2024/01/02 05:16:51;;;;;;;5.63;3.05;;;;;;;5.26;100.00;99265.47;4868214;29;20059;-81
2024/01/02 05:19:19;;;;;;;9.88;3.25;;;;;;;5.26;100.00;99264.59;4867932;29;20045;-82
2024/01/02 05:21:47;;;;;;;9.27;2.90;;;;;;;5.25;100.00;99242.84;4879415;29;20044;-82
2024/01/02 05:24:14;;;;;;;9.27;3.20;;;;;;;5.26;100.00;99238.50;4852163;29;20067;-81
2024/01/02 05:26:42;;;;;;;9.07;2.65;;;;;;;5.27;100.00;99234.97;4861132;29;20041;-80
2024/01/02 05:29:09;;;;;;;10.60;2.90;;;;;;;5.26;100.00;99225.44;4877491;29;20044;-81
2024/01/02 05:31:37;;;;;;;11.60;2.45;;;;;;;5.26;100.00;99218.47;4863040;29;20059;-81
2024/01/02 05:34:04;;;;;;;6.07;2.80;;;;;;;5.26;100.00;99212.38;4851453;29;20044;-82
2024/01/02 05:36:32;;;;;;;6.07;2.60;;;;;;;5.27;100.00;99211.47;4872867;29;20053;-82
2024/01/02 05:39:00;;;;;;;10.20;2.40;;;;;;;5.27;100.00;99198.41;4869482;29;20068;-81
2024/01/02 05:41:27;;;;;;;6.13;2.03;;;;;;;5.27;100.00;99201.94;4869577;29;20045;-82
2024/01/02 05:43:54;;;;;;;6.60;2.17;;;;;;;5.27;100.00;99195.81;4877068;29;20700;-82
2024/01/02 05:46:22;;;;;;;4.47;2.33;;;;;;;5.28;100.00;99189.72;4864355;29;20061;-82
2024/01/02 05:48:49;;;;;;;6.47;2.20;;;;;;;5.27;100.00;99161.84;4848061;29;20872;-82
2024/01/02 05:51:20;;;;;;;4.63;2.20;;;;;;;5.27;100.00;99164.47;4883920;29;20413;-82
2024/01/02 05:53:47;;;;;;;10.48;2.35;;;;;;;5.27;100.00;99157.53;4871843;29;20049;-82
2024/01/02 05:56:16;;;;;;;6.75;2.65;;;;;;;5.27;100.00;99148.78;4873842;29;20049;-82
2024/01/02 05:58:44;;;;;;;5.35;1.88;;;;;;;5.27;100.00;99144.47;4876004;29;20056;-81
2024/01/02 06:01:11;;;;;;;4.43;1.63;;;;;;;5.27;100.00;99147.09;4876568;29;20049;-82
2024/01/02 06:03:39;;;;;;;7.65;1.73;;;;;;;5.27;100.00;99140.97;4868007;29;20063;-81
2024/01/02 06:06:07;;;;;;;5.75;1.75;;;;;;;5.26;100.00;99134.88;4851893;29;20065;-81
2024/01/02 06:08:38;;;;;;;3.72;1.90;;;;;;;5.27;100.00;99123.56;4870887;29;20060;-79
2024/01/02 06:11:06;;;;;;;5.03;1.90;;;;;;;5.28;100.00;99133.13;4843451;29;20055;-81
2024/01/02 06:13:33;;;;;;;5.50;1.92;;;;;;;5.28;100.00;99124.44;4884646;29;20051;-81
2024/01/02 06:16:01;;;;;;;6.45;1.55;;;;;;;5.28;100.00;99119.22;4868035;29;20063;-82
2024/01/02 06:18:29;;;;;;;6.60;1.92;;;;;;;5.29;100.00;99107.88;4870409;29;20057;-81
2024/01/02 06:20:57;;;;;;;6.07;1.80;;;;;;;5.28;100.00;99107.00;4853260;29;20522;-82
2024/01/02 06:23:27;;;;;;;3.72;1.90;;;;;;;5.29;100.00;99120.94;4875174;29;20414;-81
2024/01/02 06:25:54;;;;;;;3.80;1.75;;;;;;;5.28;100.00;99112.22;4874512;29;20044;-82
2024/01/02 06:28:22;;;;;;;4.18;1.60;;;;;;;5.27;100.00;99110.50;4866931;29;20052;-83
2024/01/02 06:30:49;;;;;;;2.78;1.80;;;;;;;5.28;100.00;99104.41;4858305;29;20487;-80
2024/01/02 06:33:17;;;;;;;2.55;1.50;;;;;;;5.28;100.00;99093.94;4884047;29;20055;-82
2024/01/02 06:35:44;;;;;;;4.70;1.52;;;;;;;5.29;100.00;99097.44;4872911;29;20060;-85
2024/01/02 06:38:12;;;;;;;3.30;1.90;;;;;;;5.30;100.00;99096.56;4858396;29;20065;-82
2024/01/02 06:40:40;;;;;;;5.05;2.05;;;;;;;5.31;100.00;99079.16;4859333;29;20052;-82
2024/01/02 06:43:07;;;;;;;2.75;1.40;;;;;;;5.30;100.00;99072.19;4877264;29;20059;-82
2024/01/02 06:45:35;;;;;;;5.72;1.88;;;;;;;5.30;100.00;99065.22;4881700;29;20135;-83
2024/01/02 06:48:03;;;;;;;3.22;1.88;;;;;;;5.31;100.00;99066.94;4867387;29;20057;-82
2024/01/02 06:50:30;;;;;;;2.10;1.35;;;;;;;5.31;100.00;99056.50;4869847;29;20052;-81
2024/01/02 06:52:59;;;;;;;2.22;1.40;;;;;;;5.32;100.00;99057.38;4855105;29;20052;-82
2024/01/02 06:55:27;;;;;;;2.53;1.35;;;;;;;5.30;100.00;99054.78;4871730;29;20463;-82
2024/01/02 06:57:54;;;;;;;3.10;1.60;;;;;;;5.30;100.00;99046.09;4869128;29;20048;-82
2024/01/02 07:00:22;;;;;;;3.75;1.50;;;;;;;5.30;100.00;99051.31;4865366;29;20071;-82
2024/01/02 07:02:50;;;;;;;2.08;1.10;;;;;;;5.30;100.00;99040.84;4875470;29;20044;-82
2024/01/02 07:05:17;;;;;;;1.73;1.13;;;;;;;5.29;100.00;99042.56;4865694;29;20065;-82
2024/01/02 07:07:49;;;;;;;2.60;1.30;;;;;;;5.30;100.00;99049.56;4858592;29;20057;-83
2024/01/02 07:10:17;;;;;;;2.85;1.70;;;;;;;5.29;100.00;99042.56;4859226;29;20465;-81
2024/01/02 07:12:46;;;;;;;2.90;1.27;;;;;;;5.30;100.00;99046.09;4856099;29;20066;-81
2024/01/02 07:15:13;;;;;;;3.42;1.30;;;;;;;5.30;100.00;99039.09;4869060;29;20063;-82
2024/01/02 07:17:41;;;;;;;2.08;1.02;;;;;;;5.31;100.00;99042.56;4875898;29;20061;-82
2024/01/02 07:20:10;;;;;;;2.25;1.27;;;;;;;5.30;100.00;99040.84;4867422;29;20072;-82
2024/01/02 07:22:38;;;;;;;2.58;1.45;;;;;;;5.30;100.00;99046.94;4839464;29;20060;-82
2024/01/02 07:25:06;;;;;;;1.42;1.17;;;;;;;5.30;100.00;99036.50;4890870;29;20055;-82
2024/01/02 07:27:33;;;;;;;1.38;1.25;;;;;;;5.31;100.00;99038.22;4876294;29;20060;-82
2024/01/02 07:30:00;;;;;;;1.20;1.10;;;;;;;5.31;100.00;99040.81;4865534;29;20418;-83
2024/01/02 07:32:28;;;;;;;2.13;1.25;;;;;;;5.32;100.00;99039.97;4895466;29;20044;-82
2024/01/02 07:34:56;;;;;;;1.10;1.10;;;;;;;5.32;100.00;99034.75;4887429;29;20059;-83
2024/01/02 07:37:23;;;;;;;1.55;1.20;;;;;;;5.34;100.00;99042.56;4879414;29;20061;-81
2024/01/02 07:39:53;;;;;;;1.30;1.20;;;;;;;5.33;100.00;99033.88;4875034;29;20053;-81
2024/01/02 07:42:20;;;;;;;2.00;1.83;;;;;;;5.32;100.00;99026.91;4880233;29;20079;-81
2024/01/02 07:44:48;;;;;;;1.73;1.17;;;;;;;5.32;100.00;99013.84;4859253;29;20049;-82
2024/01/02 07:47:16;;;;;;;1.35;1.10;;;;;;;5.33;100.00;98999.03;4872924;29;20041;-81
2024/01/02 07:49:46;;;;;;;3.67;1.40;;;;;;;5.32;100.00;98979.91;4891131;29;20489;-82
2024/01/02 07:52:14;;;;;;;1.60;1.40;;;;;;;5.32;100.00;98982.50;4877964;29;20044;-81
2024/01/02 07:54:41;;;;;;;0.80;0.80;;;;;;;5.32;100.00;98985.13;4873291;29;20055;-82
2024/01/02 07:57:09;;;;;;;1.10;1.00;;;;;;;5.34;100.00;99003.41;4877907;29;20465;-80
2024/01/02 07:59:37;;;;;;;1.00;1.00;;;;;;;5.35;100.00;99020.78;4860270;29;20507;-80
2024/01/02 08:02:05;;;;;;;1.23;1.13;;;;;;;5.36;100.00;99040.81;4863893;29;20067;-81
2024/01/02 08:04:33;;;;;;;1.33;1.33;;;;;;;5.37;100.00;99059.09;4878442;29;20053;-81
2024/01/02 08:07:01;;;;;;;1.20;1.10;;;;;;;5.38;100.00;99068.66;4870835;29;20087;-81
2024/01/02 08:09:30;;;;;;;0.95;0.95;;;;;;;5.39;100.00;99073.03;4879180;29;20064;-82
2024/01/02 08:11:59;;;;;;;2.30;1.20;;;;;;;5.42;100.00;99059.06;4851755;29;20419;-81
2024/01/02 08:14:27;;;;;;;1.05;1.05;;;;;;;5.44;100.00;99054.72;4879767;29;20063;-83
2024/01/02 08:16:54;;;;;;;0.95;0.95;;;;;;;5.45;100.00;99046.88;4868114;29;20644;-81
2024/01/02 08:19:22;;;;;;;1.80;0.90;;;;;;;5.49;100.00;99052.09;4872644;29;20053;-80
2024/01/02 08:21:49;;;;;;;1.98;0.93;;;;;;;5.51;100.00;99034.66;4870893;29;20056;-82
2024/01/02 08:24:17;;;;;;;0.80;0.80;;;;;;;5.55;100.00;99036.38;4874418;29;20083;-81
2024/01/02 08:26:44;;;;;;;1.00;1.00;;;;;;;5.58;100.00;99031.13;4854690;29;20419;-81
2024/01/02 08:29:12;;;;;;;1.95;1.20;;;;;;;5.60;100.00;99034.63;4868240;29;20049;-82
2024/01/02 08:31:40;;;;;;;4.18;1.30;;;;;;;5.62;100.00;99035.47;4868869;29;20048;-81
2024/01/02 08:34:07;;;;;;;1.15;1.10;;;;;;;5.63;100.00;99034.56;4851609;29;20056;-82
2024/01/02 08:36:36;;;;;;;3.60;1.60;;;;;;;5.65;100.00;99041.53;4872630;29;20059;-82
2024/01/02 08:39:05;;;;;;;3.20;1.40;;;;;;;5.69;100.00;99041.50;4892686;29;20056;-82
2024/01/02 08:41:32;;;;;;;1.25;1.25;;;;;;;5.71;100.00;99030.19;4871634;29;20056;-82
2024/01/02 08:44:00;;;;;;;2.25;1.70;;;;;;;5.73;100.00;99040.59;4880373;29;20401;-82
2024/01/02 08:46:28;;;;;;;3.47;1.30;;;;;;;5.75;100.00;99033.66;4855163;29;20061;-82
2024/01/02 08:48:55;;;;;;;1.45;1.35;;;;;;;5.76;100.00;99046.69;4873194;29;20053;-82
2024/01/02 08:51:23;;;;;;;1.60;1.50;;;;;;;5.78;100.00;99031.84;4854867;29;20557;-82
2024/01/02 08:53:50;;;;;;;1.77;1.67;;;;;;;5.80;100.00;99037.09;4884977;29;20052;-82
2024/01/02 08:56:18;;;;;;;1.63;1.52;;;;;;;5.82;100.00;99046.69;4878311;29;20045;-82
2024/01/02 08:58:45;;;;;;;1.75;1.60;;;;;;;5.85;100.00;99045.78;4834879;29;20052;-82
2024/01/02 09:01:13;;;;;;;1.80;1.65;;;;;;;5.88;100.00;99039.66;4878451;29;20107;-82
2024/01/02 09:03:40;;;;;;;2.42;1.80;;;;;;;5.91;100.00;99029.19;4865115;29;20053;-83
2024/01/02 09:06:08;;;;;;;1.80;1.70;;;;;;;5.92;100.00;99023.09;4875517;29;20105;-81
2024/01/02 09:08:36;;;;;;;2.50;2.30;;;;;;;5.94;100.00;99023.94;4876835;29;20060;-83
2024/01/02 09:11:04;;;;;;;2.53;2.33;;;;;;;5.97;100.00;99029.16;4894763;29;20512;-82
2024/01/02 09:13:31;;;;;;;2.28;2.17;;;;;;;5.98;100.00;99037.00;4847111;29;20051;-83
2024/01/02 09:15:58;;;;;;;2.50;2.30;;;;;;;6.01;100.00;99038.72;4878673;29;20072;-82
2024/01/02 09:18:26;;;;;;;2.47;2.28;;;;;;;6.03;100.00;99044.78;4864499;29;20052;-83
2024/01/02 09:20:54;;;;;;;3.60;2.65;;;;;;;6.07;100.00;99032.56;4889202;29;20055;-82
2024/01/02 09:23:22;;;;;;;3.85;2.83;;;;;;;6.09;100.00;99030.81;4856312;29;20415;-82
2024/01/02 09:25:50;;;;;;;2.83;2.63;;;;;;;6.12;100.00;99033.41;4876341;29;20061;-82
2024/01/02 09:28:20;;;;;;;3.83;3.53;;;;;;;6.15;100.00;99030.78;4855318;29;20060;-82
2024/01/02 09:30:48;;;;;;;5.43;3.72;;;;;;;6.18;100.00;99029.00;4859467;29;22155;-82
2024/01/02 09:33:17;;;;;;;3.90;3.50;;;;;;;6.21;100.00;99036.81;4870748;29;20434;-82
2024/01/02 09:35:45;;;;;;;5.15;3.80;;;;;;;6.25;100.00;99046.38;4855399;29;20064;-81
2024/01/02 09:38:15;;;;;;;6.90;4.10;;;;;;;6.30;100.00;99042.88;4862228;29;20049;-81
2024/01/02 09:40:57;;;;;;;5.35;4.53;;;;;;;6.34;100.00;99047.19;4865157;29;20056;-82
2024/01/02 09:43:38;;;;;;;10.98;4.40;;;;;;;6.36;100.00;99038.44;4861030;29;20410;-82
2024/01/02 09:46:05;;;;;;;;;;;;;;;6.40;100.00;99036.66;4878431;29;20040;-83
2024/01/02 09:48:58;;;;;;;8.13;4.85;;;;;;;6.43;100.00;99039.28;4864417;29;19939;-83
2024/01/02 09:51:49;;;;;;;11.77;5.05;;;;;;;6.49;100.00;99040.97;4856946;29;20053;-82
2024/01/02 09:54:23;;;;;;;;;;;;;;;6.53;100.00;99042.66;4887939;29;20387;-83
2024/01/02 09:57:00;;;;;;;9.82;5.10;;;;;;;6.57;100.00;99050.47;4866746;29;19927;-82
2024/01/02 09:59:37;;;;;;;8.25;5.90;;;;;;;6.60;100.00;99039.97;4855393;29;20099;-82
2024/01/02 10:02:13;;;;;;;12.00;5.78;;;;;;;6.63;100.00;99037.34;4873287;29;20057;-82
2024/01/02 10:05:12;;;;;;;7.45;4.13;;;;;;;6.70;100.00;99039.88;4869184;29;20041;-82
2024/01/02 10:08:04;;;;;;;15.27;5.93;;;;;;;6.74;100.00;99031.97;4860267;29;20048;-83
2024/01/02 10:10:49;;;;;;;16.23;5.93;;;;;;;6.81;100.00;99041.50;4881158;29;20421;-81
2024/01/02 10:13:25;;;;;;;13.13;5.50;;;;;;;6.88;100.00;99038.81;4883839;29;20061;-81
2024/01/02 10:16:03;;;;;;;12.57;5.60;;;;;;;6.92;100.00;99027.41;4853218;29;20063;-82
2024/01/02 10:18:37;;;;;;;17.90;6.18;;;;;;;6.98;100.00;99043.06;4884529;29;20359;-81
2024/01/02 10:21:08;;;;;;;14.80;5.90;;;;;;;7.02;100.00;99044.78;4876828;29;20644;-82
2024/01/02 10:23:36;;;;;;;17.23;5.47;;;;;;;7.07;100.00;99047.31;4872174;29;20049;-83
2024/01/02 10:26:08;;;;;;;18.35;5.00;;;;;;;7.11;100.00;99046.44;4885703;29;20052;-82
2024/01/02 10:28:37;;;;;;;18.65;6.05;;;;;;;7.20;100.00;99055.03;4877781;29;20510;-82
2024/01/02 10:31:11;;;;;;;15.18;4.22;;;;;;;7.26;100.00;99053.22;4855759;29;21884;-82
2024/01/02 10:33:52;;;;;;;29.13;4.22;;;;;;;7.35;100.00;99050.50;4844034;29;20053;-82
2024/01/02 10:36:22;;;;;;;27.77;3.83;;;;;;;7.42;100.00;99045.16;4868480;29;20060;-82
2024/01/02 10:39:12;;;;;;;33.95;4.60;;;;;;;7.55;100.00;99051.09;4865404;29;20051;-82
2024/01/02 10:41:57;;;;;;;27.30;4.68;;;;;;;7.64;100.00;99050.13;4857267;29;20045;-81
2024/01/02 10:44:30;;;;;;;27.45;4.30;;;;;;;7.76;100.00;99042.06;4869265;29;20060;-81
2024/01/02 10:47:10;;;;;;;20.77;4.30;;;;;;;7.85;100.00;99037.59;4849699;29;20071;-80
2024/01/02 10:49:40;;;;;;;24.17;3.47;;;;;;;7.94;100.00;99038.31;4892598;29;20043;-81
2024/01/02 10:52:30;;;;;;;32.20;4.13;;;;;;;8.03;100.00;99034.69;4869167;29;20060;-80
2024/01/02 10:55:09;;;;;;;28.17;3.78;;;;;;;8.11;100.00;99031.94;4860172;29;20049;-81
2024/01/02 10:57:52;;;;;;;24.42;4.13;;;;;;;8.16;100.00;99037.97;4856166;29;20048;-80
2024/01/02 11:00:26;;;;;;;29.23;4.40;;;;;;;8.19;100.00;99030.06;4874063;29;20048;-79
2024/01/02 11:03:09;;;;;;;29.90;3.88;;;;;;;8.22;100.00;99026.53;4848327;29;20056;-79
2024/01/02 11:05:44;;;;;;;22.60;3.65;;;;;;;8.24;100.00;99025.63;4874191;29;20056;-84
2024/01/02 11:08:25;;;;;;;25.42;3.67;;;;;;;8.26;100.00;99017.69;4871624;29;20076;-82
2024/01/02 11:10:57;;;;;;;23.92;5.00;;;;;;;8.28;100.00;99022.06;4896325;29;20056;-80
2024/01/02 11:13:27;;;;;;;32.83;4.07;;;;;;;8.31;100.00;99018.50;4873405;29;20490;-80
2024/01/02 11:16:10;;;;;;;25.65;3.60;;;;;;;8.34;100.00;99015.84;4899811;29;20048;-80
2024/01/02 11:18:41;;;;;;;28.02;3.35;;;;;;;8.38;100.00;99017.50;4855035;29;20067;-80
2024/01/02 11:21:27;;;;;;;;;;;;;;;8.41;100.00;99017.44;4894569;29;20060;-80
2024/01/02 11:23:56;;;;;;;22.05;4.03;;;;;;;8.44;100.00;99011.31;4879344;29;19927;-79
2024/01/02 11:26:25;;;;;;;22.00;3.55;;;;;;;8.47;100.00;99006.00;4874064;29;20061;-80
2024/01/02 11:28:57;;;;;;;26.90;3.83;;;;;;;8.50;100.00;99006.81;4897879;29;20079;-79
2024/01/02 11:31:26;;;;;;;26.50;4.43;;;;;;;8.53;100.00;99003.28;4885485;29;20055;-79
2024/01/02 11:33:57;;;;;;;16.63;4.03;;;;;;;8.56;100.00;98998.84;4856483;29;20041;-78
2024/01/02 11:36:48;;;;;;;21.55;3.80;;;;;;;8.59;100.00;99009.28;4890571;29;20053;-79
2024/01/02 11:39:18;;;;;;;24.75;4.15;;;;;;;8.62;100.00;99007.50;4890091;29;20052;-77